Time;durP1;ratioP1;P1;durP2;ratioP2;P2;SDS_P1;SDS_P2;PMS_P1;PMS_P2;Temp;Humidity;BMP_temperature;BMP_pressure;BME280_temperature;BME280_humidity;BME280_pressure;Samples;Min_cycle;Max_cycle;Signal;HPM_P1;HPM_P2
2023/10/11 00:01:32;;;;;;;19.10;6.47;;;;;;;;;;5112169;28;20193;-87
2023/10/11 00:04:03;;;;;;;15.20;5.97;;;;;;;;;;5112456;28;20240;-86
2023/10/11 00:06:33;;;;;;;12.57;6.17;;;;;;;;;;5112614;28;20248;-86
2023/10/11 00:09:02;;;;;;;23.23;9.30;;;;;;;;;;5112458;28;20253;-86
2023/10/11 00:11:33;;;;;;;16.83;8.03;;;;;;;;;;5111856;28;20214;-86
2023/10/11 00:14:02;;;;;;;11.90;6.87;;;;;;;;;;5112274;28;20197;-86
2023/10/11 00:16:31;;;;;;;11.73;4.40;;;;;;;;;;5113353;28;20196;-86
2023/10/11 00:19:00;;;;;;;25.17;7.60;;;;;;;;;;5112090;28;20277;-86
2023/10/11 00:21:40;;;;;;;13.33;6.23;;;;;;;;;;5111740;28;20285;-86
2023/10/11 00:24:09;;;;;;;13.00;6.33;;;;;;;;;;5112548;28;20267;-87
2023/10/11 00:26:40;;;;;;;18.57;7.00;;;;;;;;;;5112609;28;20196;-87
2023/10/11 00:29:11;;;;;;;9.00;4.63;;;;;;;;;;5111675;28;20232;-87
2023/10/11 00:31:40;;;;;;;7.97;5.33;;;;;;;;;;5112537;28;20290;-86
2023/10/11 00:34:12;;;;;;;13.07;6.30;;;;;;;;;;5112360;28;20296;-87
2023/10/11 00:36:45;;;;;;;15.87;6.47;;;;;;;;;;5112901;28;20211;-87
2023/10/11 00:39:17;;;;;;;22.93;9.13;;;;;;;;;;5111535;28;20220;-86
2023/10/11 00:41:49;;;;;;;8.50;4.50;;;;;;;;;;5112163;28;20204;-86
2023/10/11 00:44:20;;;;;;;8.77;5.73;;;;;;;;;;5112602;28;20295;-86
2023/10/11 00:46:57;;;;;;;25.57;7.23;;;;;;;;;;5112600;28;20204;-86
2023/10/11 00:49:34;;;;;;;11.37;3.43;;;;;;;;;;5111448;28;20242;-86
2023/10/11 00:52:06;;;;;;;4.57;3.03;;;;;;;;;;5112196;28;20203;-86
2023/10/11 00:54:36;;;;;;;10.70;5.73;;;;;;;;;;5112338;28;20261;-86
2023/10/11 00:57:07;;;;;;;7.17;3.67;;;;;;;;;;5112260;28;20200;-86
2023/10/11 00:59:37;;;;;;;11.27;5.70;;;;;;;;;;5112226;28;20253;-87
2023/10/11 01:02:07;;;;;;;12.53;3.80;;;;;;;;;;5112214;28;20189;-86
2023/10/11 01:04:38;;;;;;;10.20;5.73;;;;;;;;;;5116110;27;20224;-86
2023/10/11 01:07:08;;;;;;;8.57;4.63;;;;;;;;;;5116293;28;20308;-87
2023/10/11 01:09:38;;;;;;;7.83;4.33;;;;;;;;;;5115894;28;20192;-86
2023/10/11 01:12:08;;;;;;;19.67;7.53;;;;;;;;;;5116037;27;20208;-87
2023/10/11 01:14:56;;;;;;;11.83;5.50;;;;;;;;;;5116767;28;20315;-87
2023/10/11 01:17:26;;;;;;;13.27;5.50;;;;;;;;;;5116058;28;20291;-87
2023/10/11 01:19:55;;;;;;;7.27;4.23;;;;;;;;;;5115256;28;20227;-86
2023/10/11 01:22:25;;;;;;;13.97;4.43;;;;;;;;;;5115149;28;20228;-86
2023/10/11 01:24:55;;;;;;;8.77;5.10;;;;;;;;;;5115799;28;20217;-87
2023/10/11 01:27:30;;;;;;;6.50;4.50;;;;;;;;;;5115213;28;20228;-87
2023/10/11 01:29:58;;;;;;;21.43;6.40;;;;;;;;;;5115587;28;20196;-87
2023/10/11 01:32:27;;;;;;;14.10;6.00;;;;;;;;;;5116019;28;20259;-87
2023/10/11 01:34:55;;;;;;;14.70;6.63;;;;;;;;;;5115301;28;20210;-87
2023/10/11 01:37:26;;;;;;;8.03;4.93;;;;;;;;;;5115263;28;20269;-87
2023/10/11 01:39:54;;;;;;;6.37;4.00;;;;;;;;;;5115372;28;20228;-87
2023/10/11 01:42:23;;;;;;;7.83;4.17;;;;;;;;;;5115685;28;20291;-87
2023/10/11 01:44:52;;;;;;;21.03;5.73;;;;;;;;;;5115152;28;20203;-86
2023/10/11 01:47:20;;;;;;;11.97;4.17;;;;;;;;;;5115152;28;20211;-87
2023/10/11 01:49:52;;;;;;;7.63;3.57;;;;;;;;;;5115045;28;20204;-86
2023/10/11 01:52:21;;;;;;;7.97;4.43;;;;;;;;;;5114871;28;20224;-86
2023/10/11 01:54:51;;;;;;;14.33;5.33;;;;;;;;;;5114865;28;20251;-87
2023/10/11 01:57:20;;;;;;;9.70;4.53;;;;;;;;;;5115006;28;20203;-87
2023/10/11 01:59:49;;;;;;;5.10;3.87;;;;;;;;;;5115448;28;20222;-87
2023/10/11 02:02:17;;;;;;;10.67;5.57;;;;;;;;;;5114729;28;20197;-87
2023/10/11 02:04:47;;;;;;;17.03;5.67;;;;;;;;;;5114447;28;20300;-87
2023/10/11 02:07:15;;;;;;;3.70;2.83;;;;;;;;;;5114992;28;20196;-86
2023/10/11 02:09:44;;;;;;;21.80;4.50;;;;;;;;;;5115138;28;20296;-87
2023/10/11 02:12:17;;;;;;;17.07;5.17;;;;;;;;;;5114634;28;20270;-86
2023/10/11 02:14:46;;;;;;;18.33;5.37;;;;;;;;;;5114042;28;20200;-86
2023/10/11 02:17:23;;;;;;;8.90;5.13;;;;;;;;;;5114681;28;20197;-87
2023/10/11 02:19:53;;;;;;;9.83;4.77;;;;;;;;;;5115031;28;20212;-87
2023/10/11 02:22:22;;;;;;;12.00;6.07;;;;;;;;;;5115122;28;20243;-86
2023/10/11 02:24:51;;;;;;;7.43;5.00;;;;;;;;;;5114672;28;20200;-87
2023/10/11 02:27:22;;;;;;;9.73;4.47;;;;;;;;;;5114506;28;20222;-87
2023/10/11 02:29:51;;;;;;;18.80;8.27;;;;;;;;;;5115065;28;20191;-87
2023/10/11 02:32:20;;;;;;;8.40;4.17;;;;;;;;;;5114579;28;20253;-87
2023/10/11 02:34:49;;;;;;;13.53;6.10;;;;;;;;;;5114316;28;20260;-87
2023/10/11 02:37:22;;;;;;;14.37;6.50;;;;;;;;;;5115237;28;20274;-87
2023/10/11 02:39:51;;;;;;;9.37;5.70;;;;;;;;;;5114842;28;20220;-87
2023/10/11 02:42:22;;;;;;;15.07;6.00;;;;;;;;;;5113858;28;20188;-86
2023/10/11 02:44:50;;;;;;;17.67;6.97;;;;;;;;;;5114065;28;20197;-87
2023/10/11 02:47:22;;;;;;;4.70;3.60;;;;;;;;;;5114558;28;20200;-87
2023/10/11 02:49:53;;;;;;;9.47;5.00;;;;;;;;;;5114261;28;20211;-87
2023/10/11 02:52:29;;;;;;;15.23;7.90;;;;;;;;;;5113340;28;20223;-86
2023/10/11 02:55:00;;;;;;;18.10;6.00;;;;;;;;;;5113825;28;20192;-87
2023/10/11 02:57:31;;;;;;;20.93;6.13;;;;;;;;;;5113958;28;20264;-87
2023/10/11 03:00:00;;;;;;;35.47;6.27;;;;;;;;;;5114105;28;20227;-87
2023/10/11 03:02:30;;;;;;;11.63;4.60;;;;;;;;;;5113301;28;20239;-86
2023/10/11 03:05:01;;;;;;;10.90;5.37;;;;;;;;;;5113434;28;20224;-87
2023/10/11 03:07:33;;;;;;;15.77;7.40;;;;;;;;;;5114019;28;20315;-87
2023/10/11 03:10:02;;;;;;;14.83;6.67;;;;;;;;;;5113639;28;20222;-86
2023/10/11 03:12:38;;;;;;;6.70;5.23;;;;;;;;;;5112923;28;20205;-87
2023/10/11 03:15:11;;;;;;;9.63;5.77;;;;;;;;;;5114056;28;20207;-87
2023/10/11 03:17:42;;;;;;;10.70;5.43;;;;;;;;;;5113536;28;20193;-87
2023/10/11 03:20:25;;;;;;;8.27;5.63;;;;;;;;;;5113783;28;20230;-87
2023/10/11 03:22:54;;;;;;;10.90;5.50;;;;;;;;;;5113029;28;20201;-86
2023/10/11 03:25:23;;;;;;;10.97;6.23;;;;;;;;;;5113001;28;20287;-87
2023/10/11 03:27:52;;;;;;;10.00;4.57;;;;;;;;;;5113327;28;20198;-86
2023/10/11 03:30:24;;;;;;;16.67;6.97;;;;;;;;;;5113305;28;20218;-87
2023/10/11 03:32:55;;;;;;;5.53;3.87;;;;;;;;;;5112907;28;20232;-86
2023/10/11 03:35:26;;;;;;;7.90;4.23;;;;;;;;;;5113092;28;20198;-86
2023/10/11 03:37:58;;;;;;;11.07;5.97;;;;;;;;;;5112772;28;20193;-86
2023/10/11 03:40:34;;;;;;;12.57;5.47;;;;;;;;;;5112217;28;20224;-86
2023/10/11 03:43:16;;;;;;;9.40;5.27;;;;;;;;;;5112736;28;20206;-86
2023/10/11 03:45:49;;;;;;;9.50;5.43;;;;;;;;;;5113010;28;20196;-86
2023/10/11 03:48:20;;;;;;;7.37;3.73;;;;;;;;;;5113512;28;20230;-87
2023/10/11 03:50:52;;;;;;;6.10;4.03;;;;;;;;;;5112078;28;20245;-86
2023/10/11 03:53:21;;;;;;;2.70;1.67;;;;;;;;;;5112648;28;20200;-86
2023/10/11 03:55:50;;;;;;;11.73;6.07;;;;;;;;;;5112902;28;20204;-87
2023/10/11 03:58:33;;;;;;;10.27;4.70;;;;;;;;;;5112267;28;20227;-87
2023/10/11 04:01:08;;;;;;;12.13;5.20;;;;;;;;;;5111864;28;20208;-86
2023/10/11 04:03:39;;;;;;;16.63;5.33;;;;;;;;;;5112591;28;20196;-86
2023/10/11 04:06:15;;;;;;;12.90;6.57;;;;;;;;;;5112944;28;20201;-87
2023/10/11 04:08:49;;;;;;;13.60;6.20;;;;;;;;;;5112162;28;20222;-86
2023/10/11 04:11:19;;;;;;;13.63;5.10;;;;;;;;;;5112283;28;20196;-86
2023/10/11 04:13:49;;;;;;;10.30;5.43;;;;;;;;;;5112219;28;20194;-87
2023/10/11 04:16:18;;;;;;;11.20;5.87;;;;;;;;;;5112771;28;20200;-88
2023/10/11 04:18:46;;;;;;;3.17;2.37;;;;;;;;;;5112218;28;20224;-87
2023/10/11 04:24:00;;;;;;;13.13;6.43;;;;;;;;;;5101364;28;20203;-87
2023/10/11 04:26:37;;;;;;;9.10;4.63;;;;;;;;;;5112267;28;20204;-87
2023/10/11 04:32:09;;;;;;;18.13;6.70;;;;;;;;;;5112680;28;20206;-87
2023/10/11 04:34:47;;;;;;;13.40;3.70;;;;;;;;;;5112132;28;20245;-86
2023/10/11 04:37:27;;;;;;;15.90;9.03;;;;;;;;;;5114401;28;20257;-86
2023/10/11 04:40:15;;;;;;;17.30;7.67;;;;;;;;;;5116227;28;20210;-86
2023/10/11 04:42:43;;;;;;;15.03;5.97;;;;;;;;;;5116587;28;20287;-85
2023/10/11 04:45:22;;;;;;;15.07;4.77;;;;;;;;;;5116305;28;20216;-85
2023/10/11 04:47:52;;;;;;;15.30;8.73;;;;;;;;;;5115990;28;20196;-85
2023/10/11 04:50:25;;;;;;;14.00;5.63;;;;;;;;;;5116201;28;20207;-85
2023/10/11 04:52:56;;;;;;;9.63;4.77;;;;;;;;;;5116265;28;20208;-86
2023/10/11 04:55:34;;;;;;;8.13;4.93;;;;;;;;;;5116024;28;20196;-86
2023/10/11 04:58:07;;;;;;;12.83;7.60;;;;;;;;;;5116105;28;20203;-86
2023/10/11 05:00:47;;;;;;;15.80;8.37;;;;;;;;;;5116002;28;20238;-86
2023/10/11 05:03:17;;;;;;;19.60;7.07;;;;;;;;;;5116012;28;20225;-86
2023/10/11 05:05:59;;;;;;;24.37;5.50;;;;;;;;;;5115886;28;20227;-86
2023/10/11 05:11:19;;;;;;;13.90;4.93;;;;;;;;;;5115663;28;20259;-85
2023/10/11 05:13:59;;;;;;;9.37;6.03;;;;;;;;;;5115954;28;20214;-85
2023/10/11 05:16:29;;;;;;;18.07;7.47;;;;;;;;;;5115614;28;20202;-86
2023/10/11 05:19:05;;;;;;;10.23;5.57;;;;;;;;;;5115997;28;20311;-86
2023/10/11 05:21:38;;;;;;;13.00;4.03;;;;;;;;;;5115542;28;20239;-85
2023/10/11 05:24:28;;;;;;;13.77;4.70;;;;;;;;;;5115034;28;20196;-85
2023/10/11 05:27:25;;;;;;;8.90;4.40;;;;;;;;;;5116083;28;20244;-86
2023/10/11 05:30:07;;;;;;;11.23;6.60;;;;;;;;;;5116375;28;20200;-86
2023/10/11 05:32:41;;;;;;;21.70;9.03;;;;;;;;;;5115161;28;20192;-86
2023/10/11 05:35:53;;;;;;;19.00;9.53;;;;;;;;;;5115127;28;20200;-85
2023/10/11 05:52:16;;;;;;;19.17;10.23;;;;;;;;;;5114701;28;20196;-84
2023/10/11 05:54:45;;;;;;;9.83;4.73;;;;;;;;;;5114593;28;20280;-84
2023/10/11 05:57:15;;;;;;;16.20;6.00;;;;;;;;;;5115217;28;20211;-84
2023/10/11 05:59:47;;;;;;;8.23;4.70;;;;;;;;;;5114926;28;20199;-84
2023/10/11 06:02:18;;;;;;;15.50;6.97;;;;;;;;;;5114236;28;20223;-84
2023/10/11 06:04:50;;;;;;;9.33;5.97;;;;;;;;;;5114847;28;20212;-84
2023/10/11 06:07:20;;;;;;;16.63;7.83;;;;;;;;;;5114397;28;20192;-84
2023/10/11 06:09:52;;;;;;;22.67;5.53;;;;;;;;;;5114622;28;20215;-84
2023/10/11 06:12:26;;;;;;;17.30;7.23;;;;;;;;;;5113883;28;20272;-84
2023/10/11 06:14:55;;;;;;;19.40;7.30;;;;;;;;;;5114332;28;20198;-84
2023/10/11 06:17:32;;;;;;;26.40;9.00;;;;;;;;;;5114632;28;20196;-84
2023/10/11 06:20:23;;;;;;;8.60;5.60;;;;;;;;;;5114219;27;20231;-85
2023/10/11 06:22:52;;;;;;;15.83;10.87;;;;;;;;;;5114394;28;20220;-84
2023/10/11 06:25:49;;;;;;;10.13;6.53;;;;;;;;;;5114068;28;20199;-84
2023/10/11 06:28:13;;;;;;;9.17;5.50;;;;;;;;;;5114405;28;20634;-84
2023/10/11 06:30:46;;;;;;;12.87;6.40;;;;;;;;;;5114046;28;20212;-84
2023/10/11 06:33:21;;;;;;;8.00;5.90;;;;;;;;;;5113663;28;20291;-84
2023/10/11 06:35:53;;;;;;;6.37;4.73;;;;;;;;;;5113818;28;20263;-84
2023/10/11 06:38:22;;;;;;;19.03;5.80;;;;;;;;;;5114143;28;20201;-84
2023/10/11 06:40:54;;;;;;;11.73;7.33;;;;;;;;;;5113841;28;20227;-84
2023/10/11 06:43:23;;;;;;;13.10;4.27;;;;;;;;;;5114159;28;20200;-84
2023/10/11 06:45:52;;;;;;;6.17;4.23;;;;;;;;;;5113937;28;20192;-84
2023/10/11 06:48:22;;;;;;;12.43;6.30;;;;;;;;;;5113950;28;20196;-84
2023/10/11 06:50:52;;;;;;;10.73;4.40;;;;;;;;;;5113848;28;20251;-84
2023/10/11 06:53:21;;;;;;;8.07;5.20;;;;;;;;;;5114115;28;20237;-84
2023/10/11 06:55:50;;;;;;;11.17;6.40;;;;;;;;;;5114044;28;20259;-84
2023/10/11 06:58:20;;;;;;;7.17;2.93;;;;;;;;;;5113860;28;20239;-83
2023/10/11 07:00:49;;;;;;;14.93;7.43;;;;;;;;;;5112201;28;20535;-84
2023/10/11 07:03:28;;;;;;;11.13;5.10;;;;;;;;;;5113517;28;20215;-84
2023/10/11 07:05:59;;;;;;;6.53;3.10;;;;;;;;;;5113775;28;20196;-84
2023/10/11 07:08:35;;;;;;;9.33;4.03;;;;;;;;;;5113678;28;20223;-84
2023/10/11 07:11:16;;;;;;;9.50;5.07;;;;;;;;;;5113036;28;20336;-84
2023/10/11 07:13:54;;;;;;;17.00;9.47;;;;;;;;;;5113262;28;20200;-84
2023/10/11 07:16:27;;;;;;;17.57;5.73;;;;;;;;;;5113554;27;20204;-84
2023/10/11 07:18:57;;;;;;;7.47;4.50;;;;;;;;;;5113032;28;20307;-84
2023/10/11 07:21:48;;;;;;;7.07;4.80;;;;;;;;;;5112597;28;20244;-84
2023/10/11 07:24:31;;;;;;;9.27;5.23;;;;;;;;;;5112573;28;20192;-84
2023/10/11 07:27:08;;;;;;;13.90;5.97;;;;;;;;;;5113171;28;20232;-85
2023/10/11 07:29:37;;;;;;;11.97;6.30;;;;;;;;;;5112592;28;20205;-85
2023/10/11 07:32:09;;;;;;;5.03;3.03;;;;;;;;;;5113211;28;20228;-84
2023/10/11 07:34:39;;;;;;;4.60;4.17;;;;;;;;;;5113139;28;20200;-84
2023/10/11 07:37:11;;;;;;;7.37;3.83;;;;;;;;;;5112710;28;20290;-83
2023/10/11 07:39:41;;;;;;;14.90;5.10;;;;;;;;;;5112412;28;20185;-84
2023/10/11 07:42:18;;;;;;;14.53;3.33;;;;;;;;;;5112840;28;20252;-84
2023/10/11 07:44:50;;;;;;;10.53;5.57;;;;;;;;;;5112907;28;20193;-84
2023/10/11 07:47:25;;;;;;;14.63;6.63;;;;;;;;;;5112464;28;20208;-84
2023/10/11 07:49:54;;;;;;;12.43;5.13;;;;;;;;;;5112549;28;20196;-84
2023/10/11 07:52:24;;;;;;;15.70;5.77;;;;;;;;;;5112246;28;20192;-84
2023/10/11 07:54:54;;;;;;;11.67;6.20;;;;;;;;;;5112281;28;20196;-85
2023/10/11 07:57:22;;;;;;;11.43;6.27;;;;;;;;;;5112176;28;20197;-84
2023/10/11 07:59:52;;;;;;;7.73;2.97;;;;;;;;;;5112535;28;20305;-84
2023/10/11 08:02:29;;;;;;;10.13;5.20;;;;;;;;;;5112321;28;20212;-84
2023/10/11 08:04:59;;;;;;;6.63;3.57;;;;;;;;;;5112561;28;20261;-84
2023/10/11 08:07:29;;;;;;;6.70;4.93;;;;;;;;;;5111799;28;20196;-84
2023/10/11 08:10:10;;;;;;;7.83;4.90;;;;;;;;;;5112797;28;20211;-84
2023/10/11 08:12:39;;;;;;;9.83;5.23;;;;;;;;;;5112324;28;20204;-84
2023/10/11 08:15:11;;;;;;;5.67;4.27;;;;;;;;;;5112165;28;20204;-84
2023/10/11 08:17:40;;;;;;;10.13;5.07;;;;;;;;;;5111714;28;20192;-84
2023/10/11 08:20:15;;;;;;;10.80;5.67;;;;;;;;;;5112274;28;20268;-84
2023/10/11 08:22:47;;;;;;;7.50;3.83;;;;;;;;;;5112100;28;20284;-84
2023/10/11 08:25:15;;;;;;;9.23;4.47;;;;;;;;;;5112037;28;20220;-84
2023/10/11 08:27:51;;;;;;;7.00;3.90;;;;;;;;;;5112309;28;20261;-84
2023/10/11 08:30:23;;;;;;;7.27;4.43;;;;;;;;;;5112481;28;20294;-84
2023/10/11 08:32:51;;;;;;;11.67;4.33;;;;;;;;;;5112341;28;20201;-84
2023/10/11 08:35:26;;;;;;;12.30;5.13;;;;;;;;;;5112278;28;20205;-84
2023/10/11 08:38:02;;;;;;;8.03;6.93;;;;;;;;;;5111878;28;20223;-84
2023/10/11 08:40:35;;;;;;;4.77;3.03;;;;;;;;;;5112367;28;20279;-84
2023/10/11 08:43:03;;;;;;;6.33;2.97;;;;;;;;;;5112056;28;20224;-84
2023/10/11 08:45:35;;;;;;;11.90;3.40;;;;;;;;;;5111707;28;20200;-85
2023/10/11 08:48:05;;;;;;;4.93;2.77;;;;;;;;;;5112133;28;20215;-85
2023/10/11 08:50:37;;;;;;;5.67;2.23;;;;;;;;;;5112093;28;20211;-84
2023/10/11 08:53:13;;;;;;;7.77;3.77;;;;;;;;;;5111813;28;20196;-85
2023/10/11 08:55:43;;;;;;;6.53;3.07;;;;;;;;;;5111731;28;20238;-85
2023/10/11 08:58:12;;;;;;;10.07;6.47;;;;;;;;;;5111729;28;20185;-85
2023/10/11 09:00:47;;;;;;;4.80;2.77;;;;;;;;;;5112233;28;20223;-84
2023/10/11 09:03:18;;;;;;;7.90;3.57;;;;;;;;;;5111819;28;20222;-84
2023/10/11 09:05:47;;;;;;;8.70;2.97;;;;;;;;;;5111846;28;20215;-85
2023/10/11 09:08:27;;;;;;;7.17;3.03;;;;;;;;;;5111864;28;20203;-84
2023/10/11 09:11:11;;;;;;;11.00;4.60;;;;;;;;;;5111611;28;20282;-85
2023/10/11 09:13:41;;;;;;;4.90;3.30;;;;;;;;;;5111643;28;20205;-84
2023/10/11 09:16:12;;;;;;;5.10;2.93;;;;;;;;;;5111490;28;20197;-85
2023/10/11 09:18:46;;;;;;;6.67;3.37;;;;;;;;;;5111787;28;20227;-84
2023/10/11 09:21:17;;;;;;;7.57;3.67;;;;;;;;;;5111621;28;20242;-84
2023/10/11 09:23:49;;;;;;;6.43;3.53;;;;;;;;;;5112226;28;20226;-84
2023/10/11 09:26:32;;;;;;;6.33;2.47;;;;;;;;;;5115423;28;20197;-84
2023/10/11 09:29:04;;;;;;;4.80;3.10;;;;;;;;;;5115163;28;20223;-84
2023/10/11 09:31:35;;;;;;;6.73;2.97;;;;;;;;;;5115377;28;20193;-85
2023/10/11 09:34:18;;;;;;;3.87;2.73;;;;;;;;;;5114842;28;20245;-85
2023/10/11 09:36:51;;;;;;;8.30;3.97;;;;;;;;;;5115050;28;20226;-84
2023/10/11 09:39:21;;;;;;;11.37;3.60;;;;;;;;;;5115301;28;20222;-84
2023/10/11 09:41:53;;;;;;;4.33;2.90;;;;;;;;;;5115068;28;20212;-84
2023/10/11 09:44:28;;;;;;;2.93;1.93;;;;;;;;;;5114773;28;20387;-84
2023/10/11 09:47:00;;;;;;;4.27;2.13;;;;;;;;;;5115332;28;20201;-84
2023/10/11 09:49:31;;;;;;;5.07;2.87;;;;;;;;;;5114735;28;20245;-85
2023/10/11 09:52:07;;;;;;;8.30;2.73;;;;;;;;;;5114680;28;20207;-84
2023/10/11 09:54:39;;;;;;;7.90;2.93;;;;;;;;;;5115030;28;20234;-84
2023/10/11 09:57:13;;;;;;;8.33;3.07;;;;;;;;;;5114817;28;20192;-85
2023/10/11 09:59:47;;;;;;;7.23;3.17;;;;;;;;;;5114968;28;20205;-84
2023/10/11 10:02:20;;;;;;;8.33;3.23;;;;;;;;;;5114530;28;20200;-84
2023/10/11 10:04:56;;;;;;;11.23;3.77;;;;;;;;;;5114821;28;20582;-84
2023/10/11 10:07:26;;;;;;;8.57;4.37;;;;;;;;;;5114636;28;20188;-84
2023/10/11 10:09:59;;;;;;;7.97;3.10;;;;;;;;;;5113852;28;20210;-84
2023/10/11 10:12:33;;;;;;;6.97;3.80;;;;;;;;;;5114096;28;20496;-84
2023/10/11 10:15:03;;;;;;;5.20;3.60;;;;;;;;;;5114624;28;20387;-84
2023/10/11 10:17:32;;;;;;;6.90;3.90;;;;;;;;;;5114790;28;20212;-84
2023/10/11 10:20:23;;;;;;;10.93;3.87;;;;;;;;;;5113693;28;20228;-85
2023/10/11 10:23:06;;;;;;;7.47;3.47;;;;;;;;;;5113365;28;20229;-84
2023/10/11 10:25:36;;;;;;;8.03;3.70;;;;;;;;;;5113970;27;20278;-84
2023/10/11 10:28:08;;;;;;;8.60;3.07;;;;;;;;;;5114059;28;20190;-84
2023/10/11 10:31:08;;;;;;;8.37;4.10;;;;;;;;;;5113533;28;20193;-84
2023/10/11 10:33:38;;;;;;;12.27;3.80;;;;;;;;;;5114121;28;20230;-84
2023/10/11 10:36:21;;;;;;;13.13;4.83;;;;;;;;;;5113520;28;20195;-84
2023/10/11 10:39:36;;;;;;;8.90;3.53;;;;;;;;;;5113583;28;20189;-85
2023/10/11 10:42:12;;;;;;;7.97;4.07;;;;;;;;;;5113248;28;20212;-84
2023/10/11 10:44:51;;;;;;;6.47;3.43;;;;;;;;;;5113574;28;20258;-84
2023/10/11 10:47:22;;;;;;;8.73;3.30;;;;;;;;;;5114100;28;20245;-84
2023/10/11 10:49:54;;;;;;;6.53;3.77;;;;;;;;;;5113493;28;20207;-84
2023/10/11 10:52:23;;;;;;;6.20;4.50;;;;;;;;;;5114356;28;20210;-84
2023/10/11 10:54:56;;;;;;;5.20;2.53;;;;;;;;;;5113556;28;20206;-84
2023/10/11 10:57:25;;;;;;;10.97;3.57;;;;;;;;;;5113730;28;20206;-84
2023/10/11 10:59:54;;;;;;;7.97;2.43;;;;;;;;;;5113343;28;20190;-84
2023/10/11 11:02:23;;;;;;;10.27;3.80;;;;;;;;;;5113605;27;20198;-85
2023/10/11 11:04:52;;;;;;;7.00;3.97;;;;;;;;;;5113459;28;20221;-84
2023/10/11 11:07:23;;;;;;;7.57;3.23;;;;;;;;;;5113614;28;20200;-84
2023/10/11 11:09:54;;;;;;;5.20;2.97;;;;;;;;;;5113225;28;20216;-84
2023/10/11 11:12:28;;;;;;;11.63;4.87;;;;;;;;;;5113137;28;20207;-85
2023/10/11 11:14:58;;;;;;;7.30;3.87;;;;;;;;;;5113245;28;20207;-85
2023/10/11 11:17:46;;;;;;;7.97;3.53;;;;;;;;;;5112825;28;20193;-85
2023/10/11 11:20:27;;;;;;;7.83;3.27;;;;;;;;;;5113198;28;20224;-84
2023/10/11 11:22:57;;;;;;;9.03;3.67;;;;;;;;;;5112652;28;20239;-84
2023/10/11 11:25:29;;;;;;;6.97;2.50;;;;;;;;;;5112834;27;20221;-85
2023/10/11 11:28:14;;;;;;;7.60;3.70;;;;;;;;;;5113079;28;20201;-85
2023/10/11 11:30:44;;;;;;;5.57;3.50;;;;;;;;;;5113287;28;20233;-84
2023/10/11 11:33:28;;;;;;;7.73;3.23;;;;;;;;;;5113474;28;20206;-84
2023/10/11 11:35:57;;;;;;;6.20;2.57;;;;;;;;;;5112565;28;20222;-85
2023/10/11 11:38:24;;;;;;;5.57;2.50;;;;;;;;;;5112503;28;20201;-84
2023/10/11 11:41:00;;;;;;;6.73;2.27;;;;;;;;;;5112942;28;20203;-84
2023/10/11 11:43:38;;;;;;;5.23;2.33;;;;;;;;;;5113334;28;20235;-84
2023/10/11 11:46:06;;;;;;;4.53;2.47;;;;;;;;;;5111639;28;20189;-85
2023/10/11 11:48:41;;;;;;;12.40;3.43;;;;;;;;;;5112945;28;20207;-85
2023/10/11 11:51:14;;;;;;;5.47;2.67;;;;;;;;;;5113072;28;20473;-85
2023/10/11 11:53:43;;;;;;;4.83;3.57;;;;;;;;;;5112646;28;20204;-84
2023/10/11 11:56:12;;;;;;;5.60;3.07;;;;;;;;;;5112096;28;20197;-85
2023/10/11 11:58:45;;;;;;;6.63;2.90;;;;;;;;;;5112914;28;20240;-84
2023/10/11 12:01:19;;;;;;;8.33;3.43;;;;;;;;;;5112685;28;20239;-85
2023/10/11 12:03:53;;;;;;;10.37;4.90;;;;;;;;;;5112783;28;20249;-85
2023/10/11 12:06:22;;;;;;;3.77;1.83;;;;;;;;;;5112841;28;20383;-85
2023/10/11 12:08:57;;;;;;;5.77;3.23;;;;;;;;;;5112743;28;20213;-85
2023/10/11 12:11:29;;;;;;;6.70;2.83;;;;;;;;;;5112768;28;20206;-85
2023/10/11 12:14:00;;;;;;;10.17;2.70;;;;;;;;;;5112358;28;20191;-85
2023/10/11 12:16:29;;;;;;;8.70;3.83;;;;;;;;;;5112264;28;20202;-85
2023/10/11 12:18:59;;;;;;;5.90;2.80;;;;;;;;;;5113086;28;20491;-84
2023/10/11 12:21:29;;;;;;;7.07;2.40;;;;;;;;;;5112608;28;20275;-85
2023/10/11 12:23:58;;;;;;;10.87;3.20;;;;;;;;;;5112148;28;20222;-84
2023/10/11 12:26:33;;;;;;;7.63;4.23;;;;;;;;;;5112215;28;20200;-85
2023/10/11 12:29:04;;;;;;;8.63;3.87;;;;;;;;;;5112902;28;20201;-85
2023/10/11 12:31:32;;;;;;;8.47;3.77;;;;;;;;;;5112795;28;20214;-85
2023/10/11 12:34:01;;;;;;;7.03;3.63;;;;;;;;;;5112144;28;20192;-85
2023/10/11 12:36:30;;;;;;;4.87;3.37;;;;;;;;;;5112297;28;20206;-85
2023/10/11 12:38:59;;;;;;;2.03;1.80;;;;;;;;;;5112340;28;20186;-85
2023/10/11 12:41:28;;;;;;;6.33;1.63;;;;;;;;;;5112309;28;20196;-85
2023/10/11 12:44:00;;;;;;;10.90;4.10;;;;;;;;;;5111785;28;20198;-85
2023/10/11 12:46:30;;;;;;;8.90;2.23;;;;;;;;;;5112118;28;20205;-85
2023/10/11 12:49:01;;;;;;;4.13;1.67;;;;;;;;;;5112773;28;20299;-85
2023/10/11 12:51:33;;;;;;;8.03;3.03;;;;;;;;;;5112083;28;20201;-85
2023/10/11 12:54:02;;;;;;;9.80;3.87;;;;;;;;;;5110855;28;20190;-85
2023/10/11 12:56:30;;;;;;;9.17;4.10;;;;;;;;;;5112101;28;20298;-85
2023/10/11 12:58:59;;;;;;;6.00;2.27;;;;;;;;;;5115324;28;20252;-85
2023/10/11 13:01:36;;;;;;;11.40;3.93;;;;;;;;;;5115616;28;20198;-84
2023/10/11 13:04:10;;;;;;;5.90;3.47;;;;;;;;;;5115358;28;20211;-84
2023/10/11 13:06:43;;;;;;;11.37;3.33;;;;;;;;;;5115754;28;20206;-85
2023/10/11 13:09:15;;;;;;;5.57;2.83;;;;;;;;;;5116190;28;20189;-84
2023/10/11 13:11:45;;;;;;;6.97;2.87;;;;;;;;;;5116181;28;20216;-85
2023/10/11 13:14:18;;;;;;;5.23;2.73;;;;;;;;;;5116061;28;20206;-85
2023/10/11 13:16:49;;;;;;;5.43;2.60;;;;;;;;;;5115753;28;20204;-86
2023/10/11 13:19:19;;;;;;;9.90;3.57;;;;;;;;;;5116541;28;20277;-86
2023/10/11 13:21:48;;;;;;;6.07;3.00;;;;;;;;;;5115755;28;20224;-85
2023/10/11 13:24:21;;;;;;;5.60;2.27;;;;;;;;;;5116119;28;20207;-85
2023/10/11 13:26:51;;;;;;;5.50;1.83;;;;;;;;;;5117283;28;20207;-85
2023/10/11 13:29:20;;;;;;;7.87;3.53;;;;;;;;;;5117056;28;20288;-85
2023/10/11 13:31:51;;;;;;;6.43;2.83;;;;;;;;;;5115477;28;20191;-85
2023/10/11 13:34:28;;;;;;;5.60;2.70;;;;;;;;;;5116491;28;20212;-85
2023/10/11 13:37:00;;;;;;;6.07;2.80;;;;;;;;;;5116032;28;20247;-85
2023/10/11 13:39:38;;;;;;;7.40;3.90;;;;;;;;;;5116287;28;20200;-86
2023/10/11 13:42:09;;;;;;;5.80;3.47;;;;;;;;;;5116352;28;20197;-86
2023/10/11 13:44:38;;;;;;;7.70;3.43;;;;;;;;;;5116440;28;20311;-84
2023/10/11 13:47:09;;;;;;;6.57;3.73;;;;;;;;;;5116411;27;20204;-85
2023/10/11 13:49:40;;;;;;;15.07;5.30;;;;;;;;;;5116256;27;20283;-86
2023/10/11 13:52:09;;;;;;;5.03;2.33;;;;;;;;;;5116397;28;20193;-85
2023/10/11 13:54:42;;;;;;;12.57;4.73;;;;;;;;;;5116830;28;20192;-86
2023/10/11 13:57:15;;;;;;;12.43;4.27;;;;;;;;;;5117618;28;20246;-86
2023/10/11 13:59:46;;;;;;;5.60;3.03;;;;;;;;;;5117047;28;20355;-87
2023/10/11 14:02:33;;;;;;;3.63;1.93;;;;;;;;;;5116428;28;20200;-87
2023/10/11 14:05:14;;;;;;;4.23;1.90;;;;;;;;;;5116165;28;20220;-87
2023/10/11 14:07:51;;;;;;;5.87;3.67;;;;;;;;;;5116309;28;20209;-87
2023/10/11 14:10:23;;;;;;;4.07;2.87;;;;;;;;;;5115338;28;20228;-87
2023/10/11 14:12:55;;;;;;;3.23;2.83;;;;;;;;;;5115828;28;20203;-88
2023/10/11 14:15:29;;;;;;;4.07;2.67;;;;;;;;;;5115184;28;20299;-87
2023/10/11 14:18:00;;;;;;;1.47;1.00;;;;;;;;;;5115766;28;20212;-88
2023/10/11 14:20:30;;;;;;;5.77;3.33;;;;;;;;;;5114972;28;20222;-87
2023/10/11 14:23:02;;;;;;;6.53;3.50;;;;;;;;;;5114211;28;20236;-87
2023/10/11 14:25:31;;;;;;;13.03;5.73;;;;;;;;;;5114924;28;20212;-87
2023/10/11 14:28:00;;;;;;;8.13;2.10;;;;;;;;;;5114412;28;20202;-87
2023/10/11 14:30:29;;;;;;;11.17;4.17;;;;;;;;;;5114763;28;20240;-87
2023/10/11 14:32:59;;;;;;;4.10;2.80;;;;;;;;;;5115193;28;20261;-87
2023/10/11 14:35:30;;;;;;;6.47;4.13;;;;;;;;;;5114662;28;20195;-87
2023/10/11 14:38:02;;;;;;;13.23;5.53;;;;;;;;;;5114767;28;20205;-87
2023/10/11 14:40:30;;;;;;;4.47;2.17;;;;;;;;;;5114639;28;20203;-87
2023/10/11 14:42:59;;;;;;;9.57;3.87;;;;;;;;;;5114253;28;20188;-87
2023/10/11 14:45:28;;;;;;;5.30;3.20;;;;;;;;;;5114367;28;20569;-87
2023/10/11 14:47:58;;;;;;;7.23;3.43;;;;;;;;;;5113417;28;20254;-87
2023/10/11 14:50:27;;;;;;;6.27;3.37;;;;;;;;;;5113768;28;20206;-87
2023/10/11 14:52:59;;;;;;;12.93;2.70;;;;;;;;;;5114407;28;20200;-87
2023/10/11 14:55:32;;;;;;;4.80;1.90;;;;;;;;;;5114384;28;20286;-87
2023/10/11 14:58:01;;;;;;;9.30;3.57;;;;;;;;;;5113823;28;20294;-87
2023/10/11 15:00:33;;;;;;;10.57;3.90;;;;;;;;;;5114614;28;20229;-87
2023/10/11 15:03:03;;;;;;;5.33;3.50;;;;;;;;;;5114109;28;20210;-87
2023/10/11 15:05:34;;;;;;;12.53;4.70;;;;;;;;;;5113661;28;20217;-88
2023/10/11 15:08:04;;;;;;;10.33;3.97;;;;;;;;;;5113811;28;20242;-87
2023/10/11 15:10:35;;;;;;;4.10;2.93;;;;;;;;;;5113694;28;20212;-88
2023/10/11 15:13:05;;;;;;;12.10;4.33;;;;;;;;;;5113419;28;20203;-88
2023/10/11 15:15:34;;;;;;;10.90;5.50;;;;;;;;;;5113341;28;20218;-87
2023/10/11 15:18:03;;;;;;;10.80;2.70;;;;;;;;;;5113544;28;20208;-87
2023/10/11 15:20:32;;;;;;;12.40;5.90;;;;;;;;;;5113108;28;20219;-87
2023/10/11 15:23:01;;;;;;;5.87;3.90;;;;;;;;;;5112943;28;20338;-86
2023/10/11 15:25:31;;;;;;;19.70;8.03;;;;;;;;;;5112601;28;20215;-87
2023/10/11 15:28:04;;;;;;;13.97;6.23;;;;;;;;;;5113163;28;20249;-87
2023/10/11 15:30:40;;;;;;;9.07;4.67;;;;;;;;;;5113372;28;20217;-87
2023/10/11 15:33:12;;;;;;;8.30;3.63;;;;;;;;;;5113362;28;20248;-87